sensor_id;sensor_type;location;lat;lon;timestamp;temperature;humidity
55777;DHT22;54079;44.540;18.784;2022-09-30T00:01:44;16.30;94.50
55777;DHT22;54079;44.540;18.784;2022-09-30T00:04:15;16.30;93.90
55777;DHT22;54079;44.540;18.784;2022-09-30T00:06:42;16.30;96.00
55777;DHT22;54079;44.540;18.784;2022-09-30T00:09:08;16.10;97.30
55777;DHT22;54079;44.540;18.784;2022-09-30T00:11:36;16.00;98.60
55777;DHT22;54079;44.540;18.784;2022-09-30T00:14:05;16.00;96.80
55777;DHT22;54079;44.540;18.784;2022-09-30T00:16:34;16.00;97.40
55777;DHT22;54079;44.540;18.784;2022-09-30T00:19:01;16.10;97.00
55777;DHT22;54079;44.540;18.784;2022-09-30T00:21:29;16.10;99.50
55777;DHT22;54079;44.540;18.784;2022-09-30T00:23:55;16.00;95.90
55777;DHT22;54079;44.540;18.784;2022-09-30T00:26:22;16.00;97.90
55777;DHT22;54079;44.540;18.784;2022-09-30T00:28:50;16.00;98.40
55777;DHT22;54079;44.540;18.784;2022-09-30T00:31:18;15.90;95.60
55777;DHT22;54079;44.540;18.784;2022-09-30T00:33:45;15.90;98.00
55777;DHT22;54079;44.540;18.784;2022-09-30T00:36:43;15.90;99.60
55777;DHT22;54079;44.540;18.784;2022-09-30T00:39:16;15.90;97.00
55777;DHT22;54079;44.540;18.784;2022-09-30T00:41:44;15.90;99.60
55777;DHT22;54079;44.540;18.784;2022-09-30T00:53:38;16.00;99.90
55777;DHT22;54079;44.540;18.784;2022-09-30T00:56:10;16.10;99.90
55777;DHT22;54079;44.540;18.784;2022-09-30T00:58:49;16.20;98.50
55777;DHT22;54079;44.540;18.784;2022-09-30T01:01:16;16.30;98.20
55777;DHT22;54079;44.540;18.784;2022-09-30T01:04:02;16.10;98.90
55777;DHT22;54079;44.540;18.784;2022-09-30T01:06:29;16.00;99.10
55777;DHT22;54079;44.540;18.784;2022-09-30T01:08:56;16.10;96.70
55777;DHT22;54079;44.540;18.784;2022-09-30T01:11:23;16.30;97.00
55777;DHT22;54079;44.540;18.784;2022-09-30T01:13:54;16.40;97.80
55777;DHT22;54079;44.540;18.784;2022-09-30T01:16:31;16.50;98.80
55777;DHT22;54079;44.540;18.784;2022-09-30T01:22:08;16.30;98.60
55777;DHT22;54079;44.540;18.784;2022-09-30T01:33:03;16.70;97.40
55777;DHT22;54079;44.540;18.784;2022-09-30T01:44:27;16.80;99.40
55777;DHT22;54079;44.540;18.784;2022-09-30T01:47:05;16.80;99.90
55777;DHT22;54079;44.540;18.784;2022-09-30T01:49:49;16.80;99.90
55777;DHT22;54079;44.540;18.784;2022-09-30T01:52:40;16.80;99.90
55777;DHT22;54079;44.540;18.784;2022-09-30T01:55:17;16.80;99.90
55777;DHT22;54079;44.540;18.784;2022-09-30T02:00:17;16.90;99.90
55777;DHT22;54079;44.540;18.784;2022-09-30T02:02:49;17.00;99.90
55777;DHT22;54079;44.540;18.784;2022-09-30T02:05:22;17.00;99.90
55777;DHT22;54079;44.540;18.784;2022-09-30T02:08:18;17.00;99.90
55777;DHT22;54079;44.540;18.784;2022-09-30T02:10:58;17.00;98.80
55777;DHT22;54079;44.540;18.784;2022-09-30T02:16:36;17.10;98.70
55777;DHT22;54079;44.540;18.784;2022-09-30T02:21:59;17.20;98.40
55777;DHT22;54079;44.540;18.784;2022-09-30T02:24:29;17.00;99.70
55777;DHT22;54079;44.540;18.784;2022-09-30T02:26:58;16.90;99.90
55777;DHT22;54079;44.540;18.784;2022-09-30T02:29:29;17.00;98.80
55777;DHT22;54079;44.540;18.784;2022-09-30T02:32:00;16.90;99.90
55777;DHT22;54079;44.540;18.784;2022-09-30T02:34:31;17.00;99.70
55777;DHT22;54079;44.540;18.784;2022-09-30T02:37:07;17.10;99.90
55777;DHT22;54079;44.540;18.784;2022-09-30T02:42:36;17.00;99.90
55777;DHT22;54079;44.540;18.784;2022-09-30T02:45:09;17.00;99.90
55777;DHT22;54079;44.540;18.784;2022-09-30T02:47:47;17.00;99.90
55777;DHT22;54079;44.540;18.784;2022-09-30T02:50:35;17.10;99.90
55777;DHT22;54079;44.540;18.784;2022-09-30T02:56:15;17.20;99.90
55777;DHT22;54079;44.540;18.784;2022-09-30T02:58:44;17.10;99.90
55777;DHT22;54079;44.540;18.784;2022-09-30T03:01:13;17.00;99.90
55777;DHT22;54079;44.540;18.784;2022-09-30T03:03:56;17.00;99.90
55777;DHT22;54079;44.540;18.784;2022-09-30T03:06:24;17.10;99.90
55777;DHT22;54079;44.540;18.784;2022-09-30T03:08:51;17.00;99.90
55777;DHT22;54079;44.540;18.784;2022-09-30T03:11:20;17.10;99.90
55777;DHT22;54079;44.540;18.784;2022-09-30T03:19:40;17.20;99.90
55777;DHT22;54079;44.540;18.784;2022-09-30T03:22:26;17.20;99.90
55777;DHT22;54079;44.540;18.784;2022-09-30T03:25:28;17.10;99.90
55777;DHT22;54079;44.540;18.784;2022-09-30T03:28:24;17.10;99.90
55777;DHT22;54079;44.540;18.784;2022-09-30T03:31:21;17.00;99.90
55777;DHT22;54079;44.540;18.784;2022-09-30T03:36:34;16.90;99.90
55777;DHT22;54079;44.540;18.784;2022-09-30T03:44:24;17.20;99.90
55777;DHT22;54079;44.540;18.784;2022-09-30T03:47:13;17.30;99.90
55777;DHT22;54079;44.540;18.784;2022-09-30T03:49:54;17.20;99.90
55777;DHT22;54079;44.540;18.784;2022-09-30T03:52:22;17.20;99.90
55777;DHT22;54079;44.540;18.784;2022-09-30T03:54:53;17.20;99.90
55777;DHT22;54079;44.540;18.784;2022-09-30T03:57:19;17.20;99.90
55777;DHT22;54079;44.540;18.784;2022-09-30T03:59:45;17.20;98.50
55777;DHT22;54079;44.540;18.784;2022-09-30T04:02:11;17.10;99.90
55777;DHT22;54079;44.540;18.784;2022-09-30T04:04:40;16.80;99.90
55777;DHT22;54079;44.540;18.784;2022-09-30T04:07:07;16.70;99.90
55777;DHT22;54079;44.540;18.784;2022-09-30T04:09:37;16.50;99.90
55777;DHT22;54079;44.540;18.784;2022-09-30T04:12:04;16.40;99.90
55777;DHT22;54079;44.540;18.784;2022-09-30T04:14:30;16.30;99.90
55777;DHT22;54079;44.540;18.784;2022-09-30T04:16:56;16.20;99.90
55777;DHT22;54079;44.540;18.784;2022-09-30T04:19:22;16.10;99.90
55777;DHT22;54079;44.540;18.784;2022-09-30T04:21:50;16.00;99.90
55777;DHT22;54079;44.540;18.784;2022-09-30T04:24:18;15.90;99.90
55777;DHT22;54079;44.540;18.784;2022-09-30T04:26:44;15.80;99.90
55777;DHT22;54079;44.540;18.784;2022-09-30T04:29:10;15.80;99.90
55777;DHT22;54079;44.540;18.784;2022-09-30T04:31:36;15.70;99.90
55777;DHT22;54079;44.540;18.784;2022-09-30T04:34:02;15.60;99.90
55777;DHT22;54079;44.540;18.784;2022-09-30T04:36:28;15.60;99.90
55777;DHT22;54079;44.540;18.784;2022-09-30T04:38:54;15.60;99.90
55777;DHT22;54079;44.540;18.784;2022-09-30T04:41:20;15.50;99.90
55777;DHT22;54079;44.540;18.784;2022-09-30T04:43:47;15.50;99.90
55777;DHT22;54079;44.540;18.784;2022-09-30T04:46:15;15.40;99.90
55777;DHT22;54079;44.540;18.784;2022-09-30T04:48:42;15.30;99.90
55777;DHT22;54079;44.540;18.784;2022-09-30T04:51:14;15.30;99.90
55777;DHT22;54079;44.540;18.784;2022-09-30T04:53:41;15.30;99.90
55777;DHT22;54079;44.540;18.784;2022-09-30T04:56:07;15.30;99.90
55777;DHT22;54079;44.540;18.784;2022-09-30T04:58:33;15.20;99.90
55777;DHT22;54079;44.540;18.784;2022-09-30T05:01:04;15.30;99.90
55777;DHT22;54079;44.540;18.784;2022-09-30T05:03:30;15.30;99.90
55777;DHT22;54079;44.540;18.784;2022-09-30T05:05:56;15.30;99.90
55777;DHT22;54079;44.540;18.784;2022-09-30T05:08:22;15.40;99.90
55777;DHT22;54079;44.540;18.784;2022-09-30T05:10:59;15.40;99.90
55777;DHT22;54079;44.540;18.784;2022-09-30T05:13:33;15.40;99.90
55777;DHT22;54079;44.540;18.784;2022-09-30T05:16:00;15.50;99.90
55777;DHT22;54079;44.540;18.784;2022-09-30T05:18:27;15.50;99.90
55777;DHT22;54079;44.540;18.784;2022-09-30T05:20:55;15.50;99.90
55777;DHT22;54079;44.540;18.784;2022-09-30T05:23:25;15.50;99.90
55777;DHT22;54079;44.540;18.784;2022-09-30T05:25:51;15.60;99.90
55777;DHT22;54079;44.540;18.784;2022-09-30T05:28:18;15.60;99.90
55777;DHT22;54079;44.540;18.784;2022-09-30T05:30:44;15.60;99.90
55777;DHT22;54079;44.540;18.784;2022-09-30T05:33:12;15.60;99.90
55777;DHT22;54079;44.540;18.784;2022-09-30T05:35:39;15.60;99.90
55777;DHT22;54079;44.540;18.784;2022-09-30T05:38:06;15.60;99.90
55777;DHT22;54079;44.540;18.784;2022-09-30T05:40:32;15.60;99.90
55777;DHT22;54079;44.540;18.784;2022-09-30T05:42:59;15.70;99.90
55777;DHT22;54079;44.540;18.784;2022-09-30T05:45:25;15.80;99.90
55777;DHT22;54079;44.540;18.784;2022-09-30T05:47:52;15.90;99.90
55777;DHT22;54079;44.540;18.784;2022-09-30T05:50:20;15.80;99.90
55777;DHT22;54079;44.540;18.784;2022-09-30T05:52:46;15.80;99.90
55777;DHT22;54079;44.540;18.784;2022-09-30T05:55:15;15.80;99.90
55777;DHT22;54079;44.540;18.784;2022-09-30T05:57:41;15.80;99.90
55777;DHT22;54079;44.540;18.784;2022-09-30T06:00:08;15.80;99.90
55777;DHT22;54079;44.540;18.784;2022-09-30T06:02:34;15.80;99.90
55777;DHT22;54079;44.540;18.784;2022-09-30T06:05:04;15.90;99.90
55777;DHT22;54079;44.540;18.784;2022-09-30T06:07:32;16.10;99.90
55777;DHT22;54079;44.540;18.784;2022-09-30T06:09:59;16.20;99.90
55777;DHT22;54079;44.540;18.784;2022-09-30T06:12:25;16.20;99.90
55777;DHT22;54079;44.540;18.784;2022-09-30T06:14:54;16.30;99.90
55777;DHT22;54079;44.540;18.784;2022-09-30T06:17:20;16.40;99.90
55777;DHT22;54079;44.540;18.784;2022-09-30T06:19:47;16.50;99.90
55777;DHT22;54079;44.540;18.784;2022-09-30T06:22:15;16.70;99.90
55777;DHT22;54079;44.540;18.784;2022-09-30T06:24:41;16.80;99.90
55777;DHT22;54079;44.540;18.784;2022-09-30T06:27:07;17.00;99.90
55777;DHT22;54079;44.540;18.784;2022-09-30T06:29:33;17.30;99.90
55777;DHT22;54079;44.540;18.784;2022-09-30T06:31:59;18.00;98.30
55777;DHT22;54079;44.540;18.784;2022-09-30T06:34:26;19.60;93.30
55777;DHT22;54079;44.540;18.784;2022-09-30T06:36:51;21.20;83.30
55777;DHT22;54079;44.540;18.784;2022-09-30T06:39:18;23.00;79.90
55777;DHT22;54079;44.540;18.784;2022-09-30T06:41:44;24.50;73.70
55777;DHT22;54079;44.540;18.784;2022-09-30T06:44:11;25.40;68.90
55777;DHT22;54079;44.540;18.784;2022-09-30T06:46:37;26.70;66.20
55777;DHT22;54079;44.540;18.784;2022-09-30T06:49:04;27.60;62.90
55777;DHT22;54079;44.540;18.784;2022-09-30T06:51:31;28.20;61.10
55777;DHT22;54079;44.540;18.784;2022-09-30T06:54:01;29.10;57.50
55777;DHT22;54079;44.540;18.784;2022-09-30T06:56:27;29.50;57.90
55777;DHT22;54079;44.540;18.784;2022-09-30T06:58:53;30.30;56.60
55777;DHT22;54079;44.540;18.784;2022-09-30T07:01:22;31.10;56.00
55777;DHT22;54079;44.540;18.784;2022-09-30T07:03:49;31.80;54.00
55777;DHT22;54079;44.540;18.784;2022-09-30T07:06:20;32.00;54.20
55777;DHT22;54079;44.540;18.784;2022-09-30T07:08:46;32.20;50.90
55777;DHT22;54079;44.540;18.784;2022-09-30T07:11:13;32.80;50.60
55777;DHT22;54079;44.540;18.784;2022-09-30T07:13:45;32.10;52.20
55777;DHT22;54079;44.540;18.784;2022-09-30T07:16:12;32.70;51.10
55777;DHT22;54079;44.540;18.784;2022-09-30T07:18:39;32.80;51.00
55777;DHT22;54079;44.540;18.784;2022-09-30T07:21:10;32.20;51.30
55777;DHT22;54079;44.540;18.784;2022-09-30T07:23:38;32.50;52.20
55777;DHT22;54079;44.540;18.784;2022-09-30T07:26:10;32.80;50.90
55777;DHT22;54079;44.540;18.784;2022-09-30T07:28:36;33.00;51.10
55777;DHT22;54079;44.540;18.784;2022-09-30T07:31:09;32.80;51.70
55777;DHT22;54079;44.540;18.784;2022-09-30T07:33:36;32.90;51.70
55777;DHT22;54079;44.540;18.784;2022-09-30T07:36:04;33.40;51.00
55777;DHT22;54079;44.540;18.784;2022-09-30T07:38:35;33.00;51.60
55777;DHT22;54079;44.540;18.784;2022-09-30T07:41:05;33.10;51.40
55777;DHT22;54079;44.540;18.784;2022-09-30T07:43:35;33.10;51.80
55777;DHT22;54079;44.540;18.784;2022-09-30T07:46:22;33.10;50.50
55777;DHT22;54079;44.540;18.784;2022-09-30T07:48:53;32.60;51.00
55777;DHT22;54079;44.540;18.784;2022-09-30T07:51:33;32.20;52.10
55777;DHT22;54079;44.540;18.784;2022-09-30T07:54:03;31.80;52.00
55777;DHT22;54079;44.540;18.784;2022-09-30T07:56:31;31.30;52.50
55777;DHT22;54079;44.540;18.784;2022-09-30T07:58:59;31.00;53.00
55777;DHT22;54079;44.540;18.784;2022-09-30T08:01:42;30.80;53.30
55777;DHT22;54079;44.540;18.784;2022-09-30T08:04:10;30.70;52.00
55777;DHT22;54079;44.540;18.784;2022-09-30T08:06:38;30.70;54.40
55777;DHT22;54079;44.540;18.784;2022-09-30T08:09:05;30.60;53.60
55777;DHT22;54079;44.540;18.784;2022-09-30T08:11:35;30.50;53.40
55777;DHT22;54079;44.540;18.784;2022-09-30T08:14:03;30.10;56.00
55777;DHT22;54079;44.540;18.784;2022-09-30T08:16:30;30.20;54.40
55777;DHT22;54079;44.540;18.784;2022-09-30T08:18:58;30.10;54.00
55777;DHT22;54079;44.540;18.784;2022-09-30T08:21:25;29.70;54.10
55777;DHT22;54079;44.540;18.784;2022-09-30T08:23:51;29.00;54.40
55777;DHT22;54079;44.540;18.784;2022-09-30T08:26:17;28.70;57.20
55777;DHT22;54079;44.540;18.784;2022-09-30T08:28:44;29.30;56.70
55777;DHT22;54079;44.540;18.784;2022-09-30T08:31:18;30.60;54.70
55777;DHT22;54079;44.540;18.784;2022-09-30T08:33:44;32.00;52.10
55777;DHT22;54079;44.540;18.784;2022-09-30T08:36:15;33.60;49.50
55777;DHT22;54079;44.540;18.784;2022-09-30T08:38:42;34.60;47.00
55777;DHT22;54079;44.540;18.784;2022-09-30T08:46:45;37.00;46.50
55777;DHT22;54079;44.540;18.784;2022-09-30T08:52:21;37.40;44.10
55777;DHT22;54079;44.540;18.784;2022-09-30T08:54:51;37.60;44.00
55777;DHT22;54079;44.540;18.784;2022-09-30T08:57:19;38.10;45.20
55777;DHT22;54079;44.540;18.784;2022-09-30T08:59:57;38.10;43.50
55777;DHT22;54079;44.540;18.784;2022-09-30T09:02:29;38.00;42.40
55777;DHT22;54079;44.540;18.784;2022-09-30T09:05:02;37.90;43.70
55777;DHT22;54079;44.540;18.784;2022-09-30T09:10:45;36.40;45.90
55777;DHT22;54079;44.540;18.784;2022-09-30T09:13:49;35.30;44.60
55777;DHT22;54079;44.540;18.784;2022-09-30T09:18:57;32.30;50.40
55777;DHT22;54079;44.540;18.784;2022-09-30T09:24:17;30.20;51.30
55777;DHT22;54079;44.540;18.784;2022-09-30T09:26:44;29.50;51.80
55777;DHT22;54079;44.540;18.784;2022-09-30T09:29:35;29.10;56.00
55777;DHT22;54079;44.540;18.784;2022-09-30T09:32:14;28.70;51.40
55777;DHT22;54079;44.540;18.784;2022-09-30T09:34:42;28.40;57.90
55777;DHT22;54079;44.540;18.784;2022-09-30T09:37:52;27.90;56.50
55777;DHT22;54079;44.540;18.784;2022-09-30T09:47:07;27.40;52.40
55777;DHT22;54079;44.540;18.784;2022-09-30T09:54:46;27.30;52.40
55777;DHT22;54079;44.540;18.784;2022-09-30T09:57:18;27.20;54.40
55777;DHT22;54079;44.540;18.784;2022-09-30T10:03:02;27.20;56.10
55777;DHT22;54079;44.540;18.784;2022-09-30T10:05:30;27.20;52.50
55777;DHT22;54079;44.540;18.784;2022-09-30T10:08:09;26.90;52.20
55777;DHT22;54079;44.540;18.784;2022-09-30T10:10:53;26.80;56.40
55777;DHT22;54079;44.540;18.784;2022-09-30T10:15:49;27.00;58.90
55777;DHT22;54079;44.540;18.784;2022-09-30T10:18:19;27.10;55.10
55777;DHT22;54079;44.540;18.784;2022-09-30T10:20:58;27.10;53.40
55777;DHT22;54079;44.540;18.784;2022-09-30T10:23:30;27.20;55.80
55777;DHT22;54079;44.540;18.784;2022-09-30T10:26:16;27.20;55.20
55777;DHT22;54079;44.540;18.784;2022-09-30T10:28:55;27.10;56.40
55777;DHT22;54079;44.540;18.784;2022-09-30T10:31:27;27.20;56.20
55777;DHT22;54079;44.540;18.784;2022-09-30T10:34:25;27.30;55.10
55777;DHT22;54079;44.540;18.784;2022-09-30T10:36:54;27.30;53.80
55777;DHT22;54079;44.540;18.784;2022-09-30T10:39:27;27.30;54.50
55777;DHT22;54079;44.540;18.784;2022-09-30T10:44:44;27.70;54.90
55777;DHT22;54079;44.540;18.784;2022-09-30T10:47:20;27.90;54.80
55777;DHT22;54079;44.540;18.784;2022-09-30T10:52:18;28.10;56.50
55777;DHT22;54079;44.540;18.784;2022-09-30T10:55:24;28.10;53.00
55777;DHT22;54079;44.540;18.784;2022-09-30T10:57:52;28.00;53.80
55777;DHT22;54079;44.540;18.784;2022-09-30T11:00:21;28.10;51.90
55777;DHT22;54079;44.540;18.784;2022-09-30T11:03:17;28.30;54.90
55777;DHT22;54079;44.540;18.784;2022-09-30T11:05:46;28.60;52.90
55777;DHT22;54079;44.540;18.784;2022-09-30T11:10:59;29.20;52.90
55777;DHT22;54079;44.540;18.784;2022-09-30T11:13:40;29.30;51.80
55777;DHT22;54079;44.540;18.784;2022-09-30T11:19:41;29.70;50.50
55777;DHT22;54079;44.540;18.784;2022-09-30T11:24:48;29.30;51.30
55777;DHT22;54079;44.540;18.784;2022-09-30T11:27:30;29.50;50.80
55777;DHT22;54079;44.540;18.784;2022-09-30T11:30:11;29.80;51.30
55777;DHT22;54079;44.540;18.784;2022-09-30T11:35:50;30.30;49.80
55777;DHT22;54079;44.540;18.784;2022-09-30T11:44:13;30.60;49.00
55777;DHT22;54079;44.540;18.784;2022-09-30T11:47:01;30.70;50.00
55777;DHT22;54079;44.540;18.784;2022-09-30T11:55:50;30.10;50.20
55777;DHT22;54079;44.540;18.784;2022-09-30T11:58:23;30.20;52.60
55777;DHT22;54079;44.540;18.784;2022-09-30T12:00:57;30.50;52.00
55777;DHT22;54079;44.540;18.784;2022-09-30T12:03:29;30.50;51.40
55777;DHT22;54079;44.540;18.784;2022-09-30T12:06:03;30.30;50.20
55777;DHT22;54079;44.540;18.784;2022-09-30T12:08:30;30.20;48.50
55777;DHT22;54079;44.540;18.784;2022-09-30T12:13:56;30.10;51.40
55777;DHT22;54079;44.540;18.784;2022-09-30T12:16:27;30.10;50.70
55777;DHT22;54079;44.540;18.784;2022-09-30T12:19:02;30.10;51.20
55777;DHT22;54079;44.540;18.784;2022-09-30T12:21:35;30.10;51.20
55777;DHT22;54079;44.540;18.784;2022-09-30T12:24:28;30.00;51.40
55777;DHT22;54079;44.540;18.784;2022-09-30T12:26:55;29.80;50.20
55777;DHT22;54079;44.540;18.784;2022-09-30T12:29:38;29.40;51.90
55777;DHT22;54079;44.540;18.784;2022-09-30T12:40:49;28.80;49.10
55777;DHT22;54079;44.540;18.784;2022-09-30T12:46:51;28.40;51.40
55777;DHT22;54079;44.540;18.784;2022-09-30T12:49:24;28.50;53.00
55777;DHT22;54079;44.540;18.784;2022-09-30T12:52:02;28.50;53.60
55777;DHT22;54079;44.540;18.784;2022-09-30T12:54:37;28.60;54.10
55777;DHT22;54079;44.540;18.784;2022-09-30T12:57:06;28.70;54.00
55777;DHT22;54079;44.540;18.784;2022-09-30T12:59:38;28.80;52.00
55777;DHT22;54079;44.540;18.784;2022-09-30T13:02:25;29.10;53.20
55777;DHT22;54079;44.540;18.784;2022-09-30T13:04:52;29.20;51.70
55777;DHT22;54079;44.540;18.784;2022-09-30T13:07:21;29.00;51.30
55777;DHT22;54079;44.540;18.784;2022-09-30T13:09:59;29.00;51.80
55777;DHT22;54079;44.540;18.784;2022-09-30T13:12:44;28.90;53.10
55777;DHT22;54079;44.540;18.784;2022-09-30T13:23:47;28.90;51.80
55777;DHT22;54079;44.540;18.784;2022-09-30T13:29:44;28.80;52.70
55777;DHT22;54079;44.540;18.784;2022-09-30T13:34:13;28.50;53.10
55777;DHT22;54079;44.540;18.784;2022-09-30T13:47:48;28.10;54.20
55777;DHT22;54079;44.540;18.784;2022-09-30T13:52:55;28.30;52.80
55777;DHT22;54079;44.540;18.784;2022-09-30T13:55:24;28.50;51.00
55777;DHT22;54079;44.540;18.784;2022-09-30T13:58:03;28.40;51.90
55777;DHT22;54079;44.540;18.784;2022-09-30T14:09:17;28.00;53.10
55777;DHT22;54079;44.540;18.784;2022-09-30T14:23:17;26.70;54.80
55777;DHT22;54079;44.540;18.784;2022-09-30T14:25:58;26.60;57.10
55777;DHT22;54079;44.540;18.784;2022-09-30T14:29:53;26.60;57.50
55777;DHT22;54079;44.540;18.784;2022-09-30T14:31:48;26.50;56.80
55777;DHT22;54079;44.540;18.784;2022-09-30T14:34:15;26.40;58.70
55777;DHT22;54079;44.540;18.784;2022-09-30T14:36:42;26.20;55.70
55777;DHT22;54079;44.540;18.784;2022-09-30T14:39:19;26.00;57.50
55777;DHT22;54079;44.540;18.784;2022-09-30T14:41:56;25.80;56.70
55777;DHT22;54079;44.540;18.784;2022-09-30T14:44:24;25.60;58.20
55777;DHT22;54079;44.540;18.784;2022-09-30T14:46:52;25.40;58.70
55777;DHT22;54079;44.540;18.784;2022-09-30T14:49:25;25.30;60.00
55777;DHT22;54079;44.540;18.784;2022-09-30T14:52:01;25.10;60.00
55777;DHT22;54079;44.540;18.784;2022-09-30T14:54:31;25.00;60.20
55777;DHT22;54079;44.540;18.784;2022-09-30T14:56:59;24.90;61.70
55777;DHT22;54079;44.540;18.784;2022-09-30T14:59:31;24.90;62.10
55777;DHT22;54079;44.540;18.784;2022-09-30T15:02:17;24.90;62.10
55777;DHT22;54079;44.540;18.784;2022-09-30T15:04:51;24.90;60.60
55777;DHT22;54079;44.540;18.784;2022-09-30T15:07:18;24.80;60.00
55777;DHT22;54079;44.540;18.784;2022-09-30T15:09:46;24.80;61.60
55777;DHT22;54079;44.540;18.784;2022-09-30T15:12:14;24.70;65.00
55777;DHT22;54079;44.540;18.784;2022-09-30T15:14:48;24.60;63.80
55777;DHT22;54079;44.540;18.784;2022-09-30T15:17:19;24.60;63.90
55777;DHT22;54079;44.540;18.784;2022-09-30T15:19:46;24.60;64.40
55777;DHT22;54079;44.540;18.784;2022-09-30T15:22:15;24.50;63.90
55777;DHT22;54079;44.540;18.784;2022-09-30T15:24:42;24.30;63.80
55777;DHT22;54079;44.540;18.784;2022-09-30T15:27:29;24.30;63.60
55777;DHT22;54079;44.540;18.784;2022-09-30T15:29:58;24.20;64.60
55777;DHT22;54079;44.540;18.784;2022-09-30T15:32:29;24.10;65.30
55777;DHT22;54079;44.540;18.784;2022-09-30T15:35:04;24.10;65.20
55777;DHT22;54079;44.540;18.784;2022-09-30T15:37:30;24.10;64.70
55777;DHT22;54079;44.540;18.784;2022-09-30T15:39:59;24.00;64.80
55777;DHT22;54079;44.540;18.784;2022-09-30T15:43:02;24.00;63.30
55777;DHT22;54079;44.540;18.784;2022-09-30T15:45:33;24.00;59.50
55777;DHT22;54079;44.540;18.784;2022-09-30T15:50:44;23.90;57.70
55777;DHT22;54079;44.540;18.784;2022-09-30T15:53:22;23.80;57.90
55777;DHT22;54079;44.540;18.784;2022-09-30T15:55:52;23.80;57.40
55777;DHT22;54079;44.540;18.784;2022-09-30T15:58:34;23.60;57.50
55777;DHT22;54079;44.540;18.784;2022-09-30T16:03:44;23.40;57.90
55777;DHT22;54079;44.540;18.784;2022-09-30T16:06:12;23.40;58.40
55777;DHT22;54079;44.540;18.784;2022-09-30T16:08:52;23.30;58.60
55777;DHT22;54079;44.540;18.784;2022-09-30T16:11:28;23.30;60.20
55777;DHT22;54079;44.540;18.784;2022-09-30T16:13:56;23.20;58.80
55777;DHT22;54079;44.540;18.784;2022-09-30T16:16:29;23.20;61.70
55777;DHT22;54079;44.540;18.784;2022-09-30T16:18:57;23.10;62.20
55777;DHT22;54079;44.540;18.784;2022-09-30T16:21:38;23.00;63.60
55777;DHT22;54079;44.540;18.784;2022-09-30T16:26:54;22.70;64.50
55777;DHT22;54079;44.540;18.784;2022-09-30T16:29:24;22.70;64.40
55777;DHT22;54079;44.540;18.784;2022-09-30T16:31:53;22.60;65.30
55777;DHT22;54079;44.540;18.784;2022-09-30T16:34:24;22.50;64.80
55777;DHT22;54079;44.540;18.784;2022-09-30T16:36:53;22.50;65.70
55777;DHT22;54079;44.540;18.784;2022-09-30T16:39:20;22.40;65.50
55777;DHT22;54079;44.540;18.784;2022-09-30T16:41:46;22.40;64.20
55777;DHT22;54079;44.540;18.784;2022-09-30T16:44:12;22.30;63.40
55777;DHT22;54079;44.540;18.784;2022-09-30T16:46:38;22.20;62.10
55777;DHT22;54079;44.540;18.784;2022-09-30T16:49:15;22.20;63.10
55777;DHT22;54079;44.540;18.784;2022-09-30T16:51:42;22.20;63.90
55777;DHT22;54079;44.540;18.784;2022-09-30T16:54:08;22.20;63.10
55777;DHT22;54079;44.540;18.784;2022-09-30T16:56:35;22.30;62.40
55777;DHT22;54079;44.540;18.784;2022-09-30T16:59:01;22.40;60.90
55777;DHT22;54079;44.540;18.784;2022-09-30T17:01:27;22.40;61.20
55777;DHT22;54079;44.540;18.784;2022-09-30T17:03:55;22.40;61.30
55777;DHT22;54079;44.540;18.784;2022-09-30T17:06:29;22.50;61.20
55777;DHT22;54079;44.540;18.784;2022-09-30T17:08:55;22.50;62.40
55777;DHT22;54079;44.540;18.784;2022-09-30T17:11:28;22.50;61.90
55777;DHT22;54079;44.540;18.784;2022-09-30T17:14:02;22.50;64.20
55777;DHT22;54079;44.540;18.784;2022-09-30T17:16:29;22.40;62.60
55777;DHT22;54079;44.540;18.784;2022-09-30T17:18:56;22.40;61.80
55777;DHT22;54079;44.540;18.784;2022-09-30T17:21:24;22.30;61.20
55777;DHT22;54079;44.540;18.784;2022-09-30T17:23:52;22.30;63.10
55777;DHT22;54079;44.540;18.784;2022-09-30T17:26:18;22.20;65.00
55777;DHT22;54079;44.540;18.784;2022-09-30T17:28:44;22.10;63.20
55777;DHT22;54079;44.540;18.784;2022-09-30T17:31:11;22.20;62.40
55777;DHT22;54079;44.540;18.784;2022-09-30T17:33:39;22.20;61.30
55777;DHT22;54079;44.540;18.784;2022-09-30T17:36:08;22.10;60.90
55777;DHT22;54079;44.540;18.784;2022-09-30T17:38:35;22.10;64.50
55777;DHT22;54079;44.540;18.784;2022-09-30T17:41:02;22.10;62.00
55777;DHT22;54079;44.540;18.784;2022-09-30T17:43:46;22.00;64.30
55777;DHT22;54079;44.540;18.784;2022-09-30T17:46:14;21.90;61.80
55777;DHT22;54079;44.540;18.784;2022-09-30T17:48:46;21.90;63.60
55777;DHT22;54079;44.540;18.784;2022-09-30T17:51:13;21.80;63.50
55777;DHT22;54079;44.540;18.784;2022-09-30T17:53:41;21.80;64.90
55777;DHT22;54079;44.540;18.784;2022-09-30T17:56:16;21.70;66.00
55777;DHT22;54079;44.540;18.784;2022-09-30T17:58:44;21.70;66.80
55777;DHT22;54079;44.540;18.784;2022-09-30T18:01:13;21.50;65.90
55777;DHT22;54079;44.540;18.784;2022-09-30T18:03:39;21.40;67.10
55777;DHT22;54079;44.540;18.784;2022-09-30T18:06:05;21.30;67.90
55777;DHT22;54079;44.540;18.784;2022-09-30T18:08:32;21.20;67.50
55777;DHT22;54079;44.540;18.784;2022-09-30T18:10:59;21.20;67.90
55777;DHT22;54079;44.540;18.784;2022-09-30T18:13:26;21.10;68.00
55777;DHT22;54079;44.540;18.784;2022-09-30T18:15:56;21.00;69.90
55777;DHT22;54079;44.540;18.784;2022-09-30T18:18:27;20.90;70.30
55777;DHT22;54079;44.540;18.784;2022-09-30T18:20:54;20.90;71.20
55777;DHT22;54079;44.540;18.784;2022-09-30T18:23:20;20.70;69.50
55777;DHT22;54079;44.540;18.784;2022-09-30T18:25:47;20.50;67.10
55777;DHT22;54079;44.540;18.784;2022-09-30T18:28:14;20.60;71.30
55777;DHT22;54079;44.540;18.784;2022-09-30T18:30:41;20.50;67.50
55777;DHT22;54079;44.540;18.784;2022-09-30T18:33:08;20.50;65.50
55777;DHT22;54079;44.540;18.784;2022-09-30T18:35:37;20.60;64.30
55777;DHT22;54079;44.540;18.784;2022-09-30T18:38:05;20.60;64.80
55777;DHT22;54079;44.540;18.784;2022-09-30T18:40:32;20.50;65.80
55777;DHT22;54079;44.540;18.784;2022-09-30T18:43:01;20.50;65.50
55777;DHT22;54079;44.540;18.784;2022-09-30T18:45:29;20.40;68.10
55777;DHT22;54079;44.540;18.784;2022-09-30T18:47:59;20.20;71.20
55777;DHT22;54079;44.540;18.784;2022-09-30T18:50:27;20.10;70.10
55777;DHT22;54079;44.540;18.784;2022-09-30T18:52:54;20.00;67.70
55777;DHT22;54079;44.540;18.784;2022-09-30T18:55:20;20.00;68.50